createdAt,value
2022-08-08T00:00:55.026Z,101026.03
2022-08-08T00:02:31.201Z,101031.03
2022-08-08T00:05:44.223Z,101020.91
2022-08-08T00:08:29.705Z,101026.09
2022-08-08T00:11:13.229Z,101027.94
2022-08-08T00:14:16.605Z,101030.91
2022-08-08T00:17:23.199Z,101034.03
2022-08-08T00:20:14.807Z,101030.03
2022-08-08T00:22:47.676Z,101031.91
2022-08-08T00:25:45.054Z,101033.72
2022-08-08T00:28:35.036Z,101032.56
2022-08-08T00:32:15.032Z,101036.19
2022-08-08T00:35:00.709Z,101031.38
2022-08-08T00:38:01.259Z,101035.53
2022-08-08T00:41:08.138Z,101033.91
2022-08-08T00:43:58.816Z,101040.16
2022-08-08T00:46:57.483Z,101041.00
2022-08-08T00:50:21.981Z,101042.00
2022-08-08T00:53:03.481Z,101034.41
2022-08-08T00:56:18.508Z,101039.41
2022-08-08T00:59:43.896Z,101029.47
2022-08-08T01:03:58.446Z,101032.47
2022-08-08T01:06:16.232Z,101040.25
2022-08-08T01:09:35.390Z,101038.59
2022-08-08T01:12:37.413Z,101035.75
2022-08-08T01:15:26.089Z,101031.81
2022-08-08T01:19:13.835Z,101032.69
2022-08-08T01:22:35.046Z,101038.00
2022-08-08T01:25:48.001Z,101039.00
2022-08-08T01:29:05.635Z,101037.69
2022-08-08T01:32:06.720Z,101033.03
2022-08-08T01:35:30.348Z,101030.72
2022-08-08T01:38:28.275Z,101032.53
2022-08-08T01:41:15.884Z,101021.94
2022-08-08T01:44:18.022Z,101034.03
2022-08-08T01:46:57.881Z,101034.88
2022-08-08T01:50:17.126Z,101035.03
2022-08-08T01:55:17.535Z,101041.31
2022-08-08T01:56:38.078Z,101034.22
2022-08-08T02:00:01.975Z,101032.38
2022-08-08T02:03:54.315Z,101043.66
2022-08-08T02:06:36.700Z,101045.31
2022-08-08T02:10:01.245Z,101049.63
2022-08-08T02:12:24.465Z,101052.28
2022-08-08T02:15:12.540Z,101048.28
2022-08-08T02:18:10.284Z,101050.78
2022-08-08T02:21:20.357Z,101045.31
2022-08-08T02:24:06.151Z,101052.25
2022-08-08T02:26:51.222Z,101050.63
2022-08-08T02:30:21.356Z,101057.06
2022-08-08T02:34:08.354Z,101056.22
2022-08-08T02:36:54.735Z,101054.91
2022-08-08T02:40:00.301Z,101050.75
2022-08-08T02:44:45.043Z,101058.38
2022-08-08T02:46:56.203Z,101056.06
2022-08-08T02:49:50.686Z,101067.47
2022-08-08T02:52:38.735Z,101056.84
2022-08-08T02:55:19.701Z,101054.53
2022-08-08T02:58:36.908Z,101059.31
2022-08-08T03:01:50.033Z,101059.50
2022-08-08T03:05:05.417Z,101064.84
2022-08-08T03:07:58.218Z,101056.53
2022-08-08T03:11:13.791Z,101058.16
2022-08-08T03:15:58.849Z,101061.47
2022-08-08T03:18:00.142Z,101064.78
2022-08-08T03:20:53.374Z,101058.16
2022-08-08T03:23:23.673Z,101070.28
2022-08-08T03:25:51.999Z,101072.44
2022-08-08T03:28:34.913Z,101060.97
2022-08-08T03:31:25.677Z,101065.13
2022-08-08T03:34:00.924Z,101066.38
2022-08-08T03:36:30.554Z,101062.38
2022-08-08T03:39:14.737Z,101059.56
2022-08-08T03:42:11.794Z,101070.69
2022-08-08T03:44:34.203Z,101067.00
2022-08-08T03:47:14.160Z,101069.34
2022-08-08T03:49:59.651Z,101063.22
2022-08-08T03:52:31.723Z,101070.09
2022-08-08T03:55:10.228Z,101065.28
2022-08-08T03:58:31.721Z,101062.00
2022-08-08T04:00:27.428Z,101067.94
2022-08-08T04:03:11.397Z,101074.81
2022-08-08T04:05:47.194Z,101071.06
2022-08-08T04:08:32.462Z,101079.00
2022-08-08T04:11:10.585Z,101075.50
2022-08-08T04:14:04.462Z,101072.72
2022-08-08T04:16:38.494Z,101078.22
2022-08-08T04:19:23.682Z,101081.34
2022-08-08T04:21:51.309Z,101087.13
2022-08-08T04:24:28.936Z,101086.50
2022-08-08T04:26:59.252Z,101092.25
2022-08-08T04:29:27.764Z,101092.59
2022-08-08T04:32:06.638Z,101090.00
2022-08-08T04:34:49.289Z,101099.00
2022-08-08T04:37:20.763Z,101099.75
2022-08-08T04:40:06.539Z,101109.53
2022-08-08T04:42:36.928Z,101106.97
2022-08-08T04:45:06.106Z,101108.78
2022-08-08T04:47:36.736Z,101109.97
2022-08-08T04:50:24.287Z,101113.94
2022-08-08T04:52:58.523Z,101123.28
2022-08-08T04:55:37.912Z,101124.41
2022-08-08T04:58:17.570Z,101130.38
2022-08-08T05:00:45.190Z,101135.50
2022-08-08T05:03:18.894Z,101137.28
2022-08-08T05:06:13.620Z,101133.78
2022-08-08T05:08:51.904Z,101130.78
2022-08-08T05:11:22.751Z,101143.63
2022-08-08T05:13:58.272Z,101138.16
2022-08-08T05:16:47.846Z,101139.13
2022-08-08T05:20:04.350Z,101140.69
2022-08-08T05:22:07.049Z,101145.00
2022-08-08T05:24:34.993Z,101145.56
2022-08-08T05:27:05.345Z,101147.09
2022-08-08T05:29:32.238Z,101151.91
2022-08-08T05:34:42.266Z,101164.81
2022-08-08T05:37:17.060Z,101164.66
2022-08-08T05:39:57.039Z,101159.31
2022-08-08T05:42:49.092Z,101163.81
2022-08-08T05:45:25.253Z,101165.16
2022-08-08T05:48:08.402Z,101173.03
2022-08-08T05:50:36.839Z,101169.63
2022-08-08T05:53:54.015Z,101170.03
2022-08-08T05:56:09.519Z,101173.53
2022-08-08T05:58:57.062Z,101181.84
2022-08-08T06:01:52.564Z,101177.34
2022-08-08T06:04:24.603Z,101184.34
2022-08-08T06:07:00.474Z,101185.72
2022-08-08T06:09:59.350Z,101188.53
2022-08-08T06:12:30.070Z,101196.28
2022-08-08T06:15:02.692Z,101199.72
2022-08-08T06:17:51.251Z,101197.78
2022-08-08T06:20:21.211Z,101208.22
2022-08-08T06:22:49.366Z,101202.97
2022-08-08T06:25:18.174Z,101205.94
2022-08-08T06:27:55.293Z,101207.00
2022-08-08T06:30:28.433Z,101215.38
2022-08-08T06:33:01.305Z,101225.69
2022-08-08T06:36:08.189Z,101222.06
2022-08-08T06:38:27.606Z,101217.84
2022-08-08T06:41:07.802Z,101223.19
2022-08-08T06:43:57.475Z,101234.50
2022-08-08T06:46:24.650Z,101227.75
2022-08-08T06:48:57.084Z,101222.31
2022-08-08T06:51:25.200Z,101235.47
2022-08-08T06:54:01.446Z,101234.22
2022-08-08T06:56:31.035Z,101234.81
2022-08-08T06:58:58.067Z,101240.53
2022-08-08T07:02:17.902Z,101237.00
2022-08-08T07:04:37.832Z,101240.47
2022-08-08T07:07:12.318Z,101237.00
2022-08-08T07:10:08.264Z,101249.06
2022-08-08T07:12:47.466Z,101252.94
2022-08-08T07:15:31.971Z,101255.19
2022-08-08T07:18:36.096Z,101246.53
2022-08-08T07:21:05.184Z,101255.66
2022-08-08T07:24:01.263Z,101261.13
2022-08-08T07:26:35.530Z,101256.63
2022-08-08T07:29:05.197Z,101261.44
2022-08-08T07:31:35.453Z,101255.03
2022-08-08T07:34:08.614Z,101252.69
2022-08-08T07:36:42.039Z,101261.22
2022-08-08T07:39:29.373Z,101247.03
2022-08-08T07:42:05.118Z,101254.94
2022-08-08T07:44:37.896Z,101253.03
2022-08-08T07:47:09.150Z,101252.69
2022-08-08T07:49:41.891Z,101254.97
2022-08-08T07:52:19.697Z,101250.44
2022-08-08T07:55:04.274Z,101257.56
2022-08-08T07:57:48.496Z,101266.00
2022-08-08T08:00:18.462Z,101266.41
2022-08-08T08:02:56.286Z,101268.88
2022-08-08T08:05:32.957Z,101262.75
2022-08-08T08:08:10.486Z,101260.09
2022-08-08T08:10:38.421Z,101259.16
2022-08-08T08:13:42.928Z,101268.31
2022-08-08T08:16:26.783Z,101277.56
2022-08-08T08:19:04.567Z,101280.28
2022-08-08T08:21:52.826Z,101275.63
2022-08-08T08:24:30.610Z,101269.75
2022-08-08T08:27:02.933Z,101276.13
2022-08-08T08:29:31.090Z,101269.16
2022-08-08T08:32:03.187Z,101263.91
2022-08-08T08:34:32.648Z,101261.25
2022-08-08T08:37:07.502Z,101263.63
2022-08-08T08:39:39.255Z,101260.72
2022-08-08T08:42:31.471Z,101260.47
2022-08-08T08:45:21.432Z,101267.59
2022-08-08T08:47:53.977Z,101269.69
2022-08-08T08:50:33.496Z,101262.38
2022-08-08T08:53:27.392Z,101265.75
2022-08-08T08:56:02.023Z,101262.25
2022-08-08T08:58:41.341Z,101267.88
2022-08-08T09:01:15.085Z,101256.06
2022-08-08T09:03:50.682Z,101257.34
2022-08-08T09:06:34.074Z,101257.19
2022-08-08T09:09:40.213Z,101260.66
2022-08-08T09:12:20.016Z,101268.47
2022-08-08T09:14:50.162Z,101263.72
2022-08-08T09:17:31.469Z,101254.81
2022-08-08T09:22:01.963Z,101265.50
2022-08-08T09:22:58.676Z,101268.78
2022-08-08T09:25:36.171Z,101256.72
2022-08-08T09:28:35.427Z,101252.78
2022-08-08T09:31:12.598Z,101257.44
2022-08-08T09:34:15.953Z,101265.97
2022-08-08T09:36:36.099Z,101268.06
2022-08-08T09:39:15.328Z,101254.28
2022-08-08T09:42:14.030Z,101248.88
2022-08-08T09:44:45.653Z,101247.06
2022-08-08T09:48:02.701Z,101250.53
2022-08-08T09:50:15.304Z,101248.03
2022-08-08T09:53:12.469Z,101242.34
2022-08-08T09:56:03.354Z,101240.44
2022-08-08T09:58:41.699Z,101241.38
2022-08-08T10:01:15.363Z,101237.81
2022-08-08T10:04:01.908Z,101237.50
2022-08-08T10:06:35.676Z,101228.97
2022-08-08T10:09:03.428Z,101228.78
2022-08-08T10:12:26.222Z,101226.59
2022-08-08T10:14:28.623Z,101222.88
2022-08-08T10:18:05.391Z,101224.50
2022-08-08T10:20:01.499Z,101204.00
2022-08-08T10:22:35.905Z,101204.97
2022-08-08T10:25:07.130Z,101207.91
2022-08-08T10:27:43.977Z,101196.13
2022-08-08T10:30:16.375Z,101191.66
2022-08-08T10:33:01.560Z,101181.59
2022-08-08T10:36:09.584Z,101180.19
2022-08-08T10:38:20.977Z,101174.41
2022-08-08T10:40:53.223Z,101172.72
2022-08-08T10:43:22.834Z,101163.88
2022-08-08T10:45:54.971Z,101170.13
2022-08-08T10:48:57.610Z,101158.25
2022-08-08T10:51:26.238Z,101165.16
2022-08-08T10:53:59.792Z,101175.47
2022-08-08T10:56:35.458Z,101169.97
2022-08-08T10:59:10.365Z,101165.06
2022-08-08T11:01:54.706Z,101156.81
2022-08-08T11:04:29.489Z,101160.78
2022-08-08T11:07:00.818Z,101155.63
2022-08-08T11:09:31.973Z,101161.78
2022-08-08T11:12:05.993Z,101159.06
2022-08-08T11:15:13.023Z,101160.47
2022-08-08T11:18:00.211Z,101162.84
2022-08-08T11:20:29.835Z,101158.28
2022-08-08T11:22:59.715Z,101158.94
2022-08-08T11:25:46.227Z,101152.81
2022-08-08T11:28:32.316Z,101152.53
2022-08-08T11:31:03.672Z,101145.53
2022-08-08T11:33:51.933Z,101145.31
2022-08-08T11:36:22.878Z,101143.53
2022-08-08T11:38:56.294Z,101147.09
2022-08-08T11:41:32.349Z,101147.47
2022-08-08T11:44:02.115Z,101141.91
2022-08-08T11:46:31.799Z,101136.97
2022-08-08T11:49:04.981Z,101138.50
2022-08-08T11:51:40.274Z,101140.59
2022-08-08T11:54:31.470Z,101132.03
2022-08-08T11:57:16.906Z,101136.84
2022-08-08T12:00:09.895Z,101128.66
2022-08-08T12:02:57.319Z,101121.78
2022-08-08T12:05:36.806Z,101120.50
2022-08-08T12:08:04.676Z,101120.34
2022-08-08T12:10:32.128Z,101113.41
2022-08-08T12:13:04.848Z,101114.25
2022-08-08T12:15:39.908Z,101110.91
2022-08-08T12:18:25.227Z,101115.81
2022-08-08T12:20:55.143Z,101109.78
2022-08-08T12:23:43.777Z,101109.19
2022-08-08T12:26:54.816Z,101099.97
2022-08-08T12:29:42.164Z,101102.78
2022-08-08T12:32:20.921Z,101099.56
2022-08-08T12:35:13.533Z,101097.81
2022-08-08T12:38:01.141Z,101101.94
2022-08-08T12:40:56.537Z,101091.75
2022-08-08T12:43:32.007Z,101096.81
2022-08-08T12:46:03.519Z,101082.66
2022-08-08T12:48:37.485Z,101073.84
2022-08-08T12:51:07.891Z,101073.81
2022-08-08T12:53:59.627Z,101093.66
2022-08-08T12:56:38.673Z,101095.56
2022-08-08T12:59:36.345Z,101089.81
2022-08-08T13:02:28.297Z,101081.66
2022-08-08T13:04:59.185Z,101094.66
2022-08-08T13:08:04.337Z,101077.16
2022-08-08T13:10:33.559Z,101081.84
2022-08-08T13:13:05.871Z,101076.38
2022-08-08T13:15:36.857Z,101082.22
2022-08-08T13:18:11.776Z,101070.78
2022-08-08T13:20:45.826Z,101070.94
2022-08-08T13:23:46.296Z,101076.69
2022-08-08T13:26:14.878Z,101077.88
2022-08-08T13:28:45.448Z,101072.88
2022-08-08T13:31:16.437Z,101077.28
2022-08-08T13:33:49.665Z,101072.94
2022-08-08T13:36:26.257Z,101062.47
2022-08-08T13:38:54.914Z,101065.09
2022-08-08T13:41:28.421Z,101059.94
2022-08-08T13:44:07.509Z,101048.59
2022-08-08T13:46:37.870Z,101058.72
2022-08-08T13:50:35.387Z,101061.22
2022-08-08T13:52:07.533Z,101057.50
2022-08-08T13:54:40.805Z,101058.44
2022-08-08T13:57:15.770Z,101063.53
2022-08-08T13:59:49.049Z,101055.56
2022-08-08T14:02:33.100Z,101050.72
2022-08-08T14:05:04.814Z,101059.38
2022-08-08T14:07:43.345Z,101052.72
2022-08-08T14:10:33.195Z,101040.63
2022-08-08T14:13:31.277Z,101049.19
2022-08-08T14:16:07.981Z,101050.50
2022-08-08T14:19:00.958Z,101045.22
2022-08-08T14:21:52.148Z,101043.38
2022-08-08T14:24:34.112Z,101045.41
2022-08-08T14:27:01.609Z,101040.34
2022-08-08T14:29:30.540Z,101025.63
2022-08-08T14:32:10.966Z,101030.75
2022-08-08T14:34:42.834Z,101024.56
2022-08-08T14:37:12.913Z,101034.75
2022-08-08T14:40:06.608Z,101028.78
2022-08-08T14:42:36.651Z,101031.59
2022-08-08T14:45:46.904Z,101025.94
2022-08-08T14:48:27.284Z,101025.66
2022-08-08T14:51:06.621Z,101023.03
2022-08-08T14:53:54.491Z,101025.81
2022-08-08T14:56:25.738Z,101022.94
2022-08-08T14:58:54.674Z,101025.31
2022-08-08T15:01:37.304Z,101016.88
2022-08-08T15:04:09.596Z,101019.41
2022-08-08T15:06:37.232Z,101013.91
2022-08-08T15:09:04.574Z,101023.75
2022-08-08T15:11:43.246Z,101021.72
2022-08-08T15:14:19.951Z,101020.53
2022-08-08T15:16:52.217Z,101014.03
2022-08-08T15:19:19.116Z,101012.72
2022-08-08T15:21:47.064Z,101018.84
2022-08-08T15:24:16.164Z,101015.94
2022-08-08T15:26:52.227Z,101017.66
2022-08-08T15:29:22.680Z,101012.75
2022-08-08T15:32:17.529Z,101026.53
2022-08-08T15:34:39.857Z,101014.22
2022-08-08T15:37:07.609Z,101021.28
2022-08-08T15:39:38.259Z,101010.25
2022-08-08T15:42:10.631Z,101010.94
2022-08-08T15:44:45.897Z,101021.81
2022-08-08T15:47:15.370Z,101028.06
2022-08-08T15:49:47.759Z,101019.34
2022-08-08T15:52:17.553Z,101014.63
2022-08-08T15:54:51.341Z,101009.78
2022-08-08T15:57:19.019Z,101014.59
2022-08-08T16:00:06.472Z,101010.94
2022-08-08T16:02:33.146Z,101012.56
2022-08-08T16:05:04.074Z,101005.88
2022-08-08T16:07:52.505Z,101000.03
2022-08-08T16:13:05.150Z,101004.34
2022-08-08T16:13:33.840Z,100998.97
2022-08-08T16:16:13.135Z,101000.19
2022-08-08T16:18:56.572Z,101001.72
2022-08-08T16:21:31.704Z,101008.44
2022-08-08T16:24:02.103Z,101005.78
2022-08-08T16:26:32.903Z,101001.66
2022-08-08T16:29:15.545Z,100999.41
2022-08-08T16:31:49.179Z,100999.13
2022-08-08T16:34:19.680Z,101001.34
2022-08-08T16:36:50.350Z,100994.78
2022-08-08T16:39:59.462Z,101005.81
2022-08-08T16:42:06.788Z,100997.00
2022-08-08T16:44:47.394Z,100998.84
2022-08-08T16:47:31.689Z,101001.88
2022-08-08T16:50:14.133Z,100999.19
2022-08-08T16:55:04.272Z,100990.59
2022-08-08T16:55:54.960Z,100993.50
2022-08-08T16:58:26.675Z,100993.44
2022-08-08T17:00:58.158Z,100996.19
2022-08-08T17:04:00.370Z,100994.13
2022-08-08T17:06:35.658Z,101006.03
2022-08-08T17:09:00.108Z,101004.41
2022-08-08T17:11:28.018Z,101005.16
2022-08-08T17:14:01.393Z,101000.19
2022-08-08T17:16:29.102Z,101003.34
2022-08-08T17:18:56.637Z,101000.06
2022-08-08T17:21:26.291Z,100998.38
2022-08-08T17:24:01.322Z,101005.63
2022-08-08T17:26:30.995Z,101003.97
2022-08-08T17:29:04.248Z,101004.75
2022-08-08T17:31:44.829Z,101009.94
2022-08-08T17:34:48.427Z,101009.06
2022-08-08T17:37:09.115Z,101019.53
2022-08-08T17:40:03.361Z,101017.38
2022-08-08T17:42:24.095Z,101015.47
2022-08-08T17:44:52.299Z,101018.41
2022-08-08T17:47:27.785Z,101016.69
2022-08-08T17:50:01.253Z,101029.28
2022-08-08T17:52:34.165Z,101024.63
2022-08-08T17:55:05.346Z,101020.56
2022-08-08T17:57:36.373Z,101018.94
2022-08-08T18:00:13.343Z,101017.75
2022-08-08T18:02:58.102Z,101024.47
2022-08-08T18:05:49.546Z,101017.75
2022-08-08T18:08:36.952Z,101029.72
2022-08-08T18:11:15.403Z,101026.59
2022-08-08T18:13:45.440Z,101037.72
2022-08-08T18:16:20.569Z,101035.88
2022-08-08T18:18:57.296Z,101035.31
2022-08-08T18:22:00.511Z,101038.44
2022-08-08T18:24:21.330Z,101040.09
2022-08-08T18:26:53.690Z,101033.31
2022-08-08T18:29:30.156Z,101040.41
2022-08-08T18:32:03.580Z,101052.53
2022-08-08T18:34:32.698Z,101049.91
2022-08-08T18:37:04.705Z,101051.75
2022-08-08T18:39:36.395Z,101056.06
2022-08-08T18:42:06.133Z,101053.38
2022-08-08T18:44:41.639Z,101057.31
2022-08-08T18:47:08.556Z,101059.19
2022-08-08T18:49:57.316Z,101057.53
2022-08-08T18:52:23.705Z,101069.97
2022-08-08T18:55:00.732Z,101066.28
2022-08-08T18:57:42.117Z,101073.03
2022-08-08T19:00:20.886Z,101075.09
2022-08-08T19:02:55.746Z,101081.50
2022-08-08T19:05:37.382Z,101085.25
2022-08-08T19:08:25.497Z,101085.84
2022-08-08T19:10:58.556Z,101095.75
2022-08-08T19:13:53.417Z,101094.06
2022-08-08T19:16:18.375Z,101102.72
2022-08-08T19:18:53.155Z,101100.25
2022-08-08T19:21:30.577Z,101102.75
2022-08-08T19:24:05.845Z,101114.06
2022-08-08T19:26:35.866Z,101116.94
2022-08-08T19:29:06.332Z,101113.63
2022-08-08T19:31:35.369Z,101113.63
2022-08-08T19:34:30.174Z,101126.16
2022-08-08T19:36:53.445Z,101122.28
2022-08-08T19:39:23.115Z,101122.84
2022-08-08T19:41:51.150Z,101127.38
2022-08-08T19:44:26.870Z,101122.84
2022-08-08T19:47:06.500Z,101126.94
2022-08-08T19:49:37.722Z,101135.16
2022-08-08T19:52:06.718Z,101135.56
2022-08-08T19:54:33.844Z,101142.38
2022-08-08T19:57:04.174Z,101143.38
2022-08-08T19:59:35.304Z,101142.13
2022-08-08T20:02:04.661Z,101159.25
2022-08-08T20:04:33.833Z,101153.00
2022-08-08T20:08:28.150Z,101149.91
2022-08-08T20:09:57.172Z,101151.97
2022-08-08T20:12:31.939Z,101152.75
2022-08-08T20:15:14.410Z,101145.97
2022-08-08T20:17:47.214Z,101155.22
2022-08-08T20:20:19.332Z,101151.13
2022-08-08T20:22:52.436Z,101159.56
2022-08-08T20:25:21.618Z,101149.91
2022-08-08T20:27:50.202Z,101156.03
2022-08-08T20:30:52.475Z,101159.09
2022-08-08T20:33:18.640Z,101169.34
2022-08-08T20:35:56.977Z,101170.09
2022-08-08T20:38:32.408Z,101170.31
2022-08-08T20:41:05.657Z,101173.56
2022-08-08T20:43:48.232Z,101173.19
2022-08-08T20:46:20.694Z,101173.53
2022-08-08T20:48:51.245Z,101171.09
2022-08-08T20:51:18.435Z,101175.78
2022-08-08T20:53:59.205Z,101182.13
2022-08-08T20:56:35.393Z,101175.94
2022-08-08T20:59:09.169Z,101180.41
2022-08-08T21:01:44.389Z,101175.44
2022-08-08T21:04:27.439Z,101172.81
2022-08-08T21:06:55.772Z,101180.44
2022-08-08T21:09:23.139Z,101180.44
2022-08-08T21:11:53.624Z,101185.84
2022-08-08T21:14:34.703Z,101189.75
2022-08-08T21:17:05.971Z,101189.06
2022-08-08T21:19:45.335Z,101180.03
2022-08-08T21:22:15.580Z,101177.91
2022-08-08T21:24:53.000Z,101183.97
2022-08-08T21:28:05.913Z,101180.25
2022-08-08T21:30:19.330Z,101184.03
2022-08-08T21:32:52.297Z,101188.34
2022-08-08T21:36:16.873Z,101188.06
2022-08-08T21:38:11.979Z,101178.78
2022-08-08T21:40:55.007Z,101185.81
2022-08-08T21:43:25.181Z,101179.38
2022-08-08T21:48:05.671Z,101180.34
2022-08-08T21:48:41.527Z,101187.34
2022-08-08T21:51:13.176Z,101182.56
2022-08-08T21:54:23.406Z,101180.47
2022-08-08T21:56:36.095Z,101179.44
2022-08-08T21:59:09.824Z,101181.75
2022-08-08T22:01:41.109Z,101179.50
2022-08-08T22:04:11.402Z,101183.06
2022-08-08T22:06:40.589Z,101178.44
2022-08-08T22:09:09.768Z,101184.34
2022-08-08T22:12:03.163Z,101183.88
2022-08-08T22:14:26.770Z,101169.91
2022-08-08T22:16:56.138Z,101180.41
2022-08-08T22:19:23.970Z,101182.13
2022-08-08T22:21:52.895Z,101181.28
2022-08-08T22:24:23.878Z,101180.22
2022-08-08T22:27:01.659Z,101183.56
2022-08-08T22:29:59.396Z,101179.63
2022-08-08T22:32:18.990Z,101179.97
2022-08-08T22:34:50.471Z,101182.75
2022-08-08T22:37:49.260Z,101186.19
2022-08-08T22:40:11.773Z,101178.81
2022-08-08T22:42:47.248Z,101185.91
2022-08-08T22:45:15.404Z,101194.81
2022-08-08T22:47:48.578Z,101183.88
2022-08-08T22:50:26.177Z,101185.16
2022-08-08T22:54:31.046Z,101186.28
2022-08-08T22:55:58.034Z,101185.66
2022-08-08T22:58:32.937Z,101194.09
2022-08-08T23:02:00.995Z,101197.13
2022-08-08T23:03:56.104Z,101189.84
2022-08-08T23:06:27.098Z,101198.16
2022-08-08T23:08:58.935Z,101197.72
2022-08-08T23:11:58.173Z,101195.72
2022-08-08T23:14:21.095Z,101199.94
2022-08-08T23:16:54.712Z,101198.47
2022-08-08T23:19:27.893Z,101190.75
2022-08-08T23:21:59.032Z,101191.38
2022-08-08T23:24:26.358Z,101201.97
2022-08-08T23:27:03.374Z,101201.13
2022-08-08T23:29:31.285Z,101196.69
2022-08-08T23:31:58.485Z,101192.38
2022-08-08T23:34:25.591Z,101206.72
2022-08-08T23:36:59.832Z,101197.44
2022-08-08T23:39:41.878Z,101191.34
2022-08-08T23:42:16.936Z,101197.41
2022-08-08T23:44:45.197Z,101193.91
2022-08-08T23:49:04.616Z,101196.66
2022-08-08T23:50:02.754Z,101204.00
2022-08-08T23:52:32.766Z,101210.00
2022-08-08T23:55:07.738Z,101205.06
2022-08-08T23:57:52.138Z,101203.16
